Time;durP1;ratioP1;P1;durP2;ratioP2;P2;SDS_P1;SDS_P2;PMS_P1;PMS_P2;Temp;Humidity;BMP_temperature;BMP_pressure;BME280_temperature;BME280_humidity;BME280_pressure;Samples;Min_cycle;Max_cycle;Signal;HPM_P1;HPM_P2
2021/06/25 00:00:01;;;;;;;0.35;0.35;;;19.80;69.30;;;;;;4207595;28;20241;-49
2021/06/25 00:02:25;;;;;;;0.03;0.03;;;19.80;69.40;;;;;;4207959;28;20066;-50
2021/06/25 00:04:47;;;;;;;0.00;0.00;;;19.80;69.40;;;;;;4207779;28;20101;-53
2021/06/25 00:07:09;;;;;;;0.00;0.00;;;19.80;69.40;;;;;;4208191;28;20044;-49
2021/06/25 00:09:32;;;;;;;0.00;0.00;;;19.80;69.50;;;;;;4207854;28;20483;-52
2021/06/25 00:11:55;;;;;;;0.00;0.00;;;19.80;69.50;;;;;;4208134;28;20510;-48
2021/06/25 00:14:21;;;;;;;0.03;0.03;;;19.80;69.60;;;;;;4206393;28;20050;-51
2021/06/25 00:16:44;;;;;;;0.00;0.00;;;19.80;69.60;;;;;;4207640;28;20869;-52
2021/06/25 00:19:07;;;;;;;0.00;0.00;;;19.80;69.60;;;;;;4207990;28;20442;-52
2021/06/25 00:21:29;;;;;;;0.22;0.22;;;19.80;69.70;;;;;;4207542;28;20105;-49
2021/06/25 00:23:51;;;;;;;0.10;0.10;;;19.80;69.70;;;;;;4206342;28;20040;-49
2021/06/25 00:26:13;;;;;;;0.05;0.05;;;19.80;69.70;;;;;;4207993;28;20044;-53
2021/06/25 00:28:36;;;;;;;0.05;0.05;;;19.80;69.70;;;;;;4207400;28;20047;-51
2021/06/25 00:30:58;;;;;;;0.00;0.00;;;19.80;69.80;;;;;;4207632;28;20143;-53
2021/06/25 00:33:21;;;;;;;0.00;0.00;;;19.80;69.90;;;;;;4206782;28;20047;-51
2021/06/25 00:35:43;;;;;;;0.00;0.00;;;19.80;69.90;;;;;;4207674;28;20162;-53
2021/06/25 00:38:06;;;;;;;0.00;0.00;;;19.80;69.90;;;;;;4207829;28;20040;-51
2021/06/25 00:40:28;;;;;;;0.00;0.00;;;19.70;69.90;;;;;;4207538;28;20046;-49
2021/06/25 00:42:51;;;;;;;0.35;0.35;;;19.70;69.90;;;;;;4207827;28;20044;-52
2021/06/25 00:45:17;;;;;;;0.00;0.00;;;19.70;69.90;;;;;;4207191;28;20452;-50
2021/06/25 00:47:39;;;;;;;0.10;0.10;;;19.70;70.00;;;;;;4207392;28;20059;-52
2021/06/25 00:50:01;;;;;;;0.00;0.00;;;19.70;70.00;;;;;;4207411;28;20048;-51
2021/06/25 00:52:23;;;;;;;0.00;0.00;;;19.70;70.10;;;;;;4207612;28;20064;-51
2021/06/25 00:54:46;;;;;;;0.00;0.00;;;19.70;70.10;;;;;;4207349;28;20054;-50
2021/06/25 00:57:08;;;;;;;0.30;0.30;;;19.70;70.10;;;;;;4207395;28;20418;-49
2021/06/25 00:59:30;;;;;;;0.00;0.00;;;19.70;70.10;;;;;;4207592;28;20434;-52
2021/06/25 01:01:54;;;;;;;0.00;0.00;;;19.70;70.20;;;;;;4207464;28;20048;-48
2021/06/25 01:04:16;;;;;;;0.00;0.00;;;19.70;70.10;;;;;;4207668;28;20056;-52
2021/06/25 01:06:41;;;;;;;0.00;0.00;;;19.60;70.10;;;;;;4207075;28;20055;-50
2021/06/25 01:09:05;;;;;;;0.00;0.00;;;19.60;70.20;;;;;;4207033;28;20079;-52
2021/06/25 01:11:30;;;;;;;0.10;0.10;;;19.60;70.20;;;;;;4207524;28;20054;-51
2021/06/25 01:13:53;;;;;;;0.03;0.03;;;19.60;70.20;;;;;;4207451;28;20066;-50
2021/06/25 01:16:16;;;;;;;0.00;0.00;;;19.60;70.20;;;;;;4205959;28;20155;-50
2021/06/25 01:18:39;;;;;;;0.10;0.10;;;19.60;70.30;;;;;;4206922;28;20513;-50
2021/06/25 01:21:04;;;;;;;0.00;0.00;;;19.60;70.30;;;;;;4207571;28;20048;-53
2021/06/25 01:23:26;;;;;;;0.00;0.00;;;19.60;70.30;;;;;;4207363;28;22138;-53
2021/06/25 01:25:49;;;;;;;0.00;0.00;;;19.60;70.30;;;;;;4209532;28;20051;-51
2021/06/25 01:28:12;;;;;;;0.00;0.00;;;19.60;70.40;;;;;;4210475;28;20512;-52
2021/06/25 01:30:37;;;;;;;0.10;0.10;;;19.60;70.40;;;;;;4209807;28;20044;-53
2021/06/25 01:33:05;;;;;;;0.00;0.00;;;19.50;70.40;;;;;;4210318;28;20767;-54
2021/06/25 01:35:27;;;;;;;0.10;0.10;;;19.50;70.40;;;;;;4208672;28;20109;-54
2021/06/25 01:37:51;;;;;;;1.38;1.35;;;19.50;70.40;;;;;;4209266;28;20047;-52
2021/06/25 01:40:17;;;;;;;0.00;0.00;;;19.50;70.50;;;;;;4207383;28;20043;-51
2021/06/25 01:42:41;;;;;;;0.00;0.00;;;19.50;70.70;;;;;;4210347;28;20120;-52
2021/06/25 01:45:05;;;;;;;0.00;0.00;;;19.50;70.70;;;;;;4209846;28;20147;-53
2021/06/25 01:47:28;;;;;;;0.03;0.03;;;19.50;70.60;;;;;;4210026;28;20040;-54
2021/06/25 01:49:50;;;;;;;0.00;0.00;;;19.50;71.40;;;;;;4209509;28;20054;-53
2021/06/25 01:52:17;;;;;;;0.00;0.00;;;19.50;70.60;;;;;;4209797;28;20090;-52
2021/06/25 01:54:41;;;;;;;0.00;0.00;;;19.50;70.60;;;;;;4209747;28;20487;-54
2021/06/25 01:57:03;;;;;;;0.30;0.20;;;19.50;70.50;;;;;;4208355;28;20489;-48
2021/06/25 01:59:26;;;;;;;0.00;0.00;;;19.50;70.50;;;;;;4209648;28;20048;-52
2021/06/25 02:01:48;;;;;;;0.45;0.45;;;19.50;70.60;;;;;;4209213;28;20101;-49
2021/06/25 02:04:10;;;;;;;0.00;0.00;;;19.50;70.60;;;;;;4208437;28;20079;-51
2021/06/25 02:06:33;;;;;;;0.50;0.50;;;19.50;70.60;;;;;;4209543;28;20231;-53
2021/06/25 02:08:55;;;;;;;0.10;0.10;;;19.50;70.60;;;;;;4205550;28;20044;-51
2021/06/25 02:11:22;;;;;;;0.00;0.00;;;19.40;70.60;;;;;;4192777;28;20094;-51
2021/06/25 02:13:44;;;;;;;0.28;0.28;;;19.40;70.60;;;;;;4199681;28;20126;-53
2021/06/25 02:16:07;;;;;;;0.00;0.00;;;19.40;71.50;;;;;;4209223;28;20444;-53
2021/06/25 02:18:29;;;;;;;0.00;0.00;;;19.40;71.50;;;;;;4209131;28;20047;-51
2021/06/25 02:20:51;;;;;;;0.38;0.38;;;19.40;70.60;;;;;;4209353;28;20048;-52
2021/06/25 02:23:13;;;;;;;0.00;0.00;;;19.40;70.60;;;;;;4209246;28;20211;-49
2021/06/25 02:25:35;;;;;;;0.00;0.00;;;19.40;70.70;;;;;;4209045;28;20101;-52
2021/06/25 02:27:59;;;;;;;0.00;0.00;;;19.40;70.90;;;;;;4208695;28;20055;-52
2021/06/25 02:30:21;;;;;;;0.00;0.00;;;19.40;70.80;;;;;;4209381;28;20074;-53
2021/06/25 02:32:44;;;;;;;0.13;0.13;;;19.40;70.80;;;;;;4209789;28;20074;-48
2021/06/25 02:35:08;;;;;;;0.00;0.00;;;19.30;70.70;;;;;;4207762;28;20545;-51
2021/06/25 02:37:30;;;;;;;0.08;0.08;;;19.30;70.70;;;;;;4208947;28;20064;-51
2021/06/25 02:39:52;;;;;;;0.20;0.20;;;19.30;70.70;;;;;;4208839;28;20048;-47
2021/06/25 02:42:14;;;;;;;0.55;0.55;;;19.30;70.70;;;;;;4208999;28;20612;-48
2021/06/25 02:44:38;;;;;;;0.00;0.00;;;19.30;70.70;;;;;;4207724;28;20085;-53
2021/06/25 02:46:59;;;;;;;0.05;0.05;;;19.30;70.80;;;;;;4208970;28;20040;-51
2021/06/25 02:49:21;;;;;;;0.05;0.05;;;19.30;70.90;;;;;;4206088;28;20071;-53
2021/06/25 02:51:44;;;;;;;0.00;0.00;;;19.30;70.70;;;;;;4208974;28;20131;-53
2021/06/25 02:54:06;;;;;;;0.00;0.00;;;19.30;70.80;;;;;;4192037;28;20048;-51
2021/06/25 02:56:28;;;;;;;0.10;0.10;;;19.30;70.80;;;;;;4190982;28;20139;-51
2021/06/25 02:58:50;;;;;;;0.65;0.65;;;19.30;70.80;;;;;;4203619;28;20490;-53
2021/06/25 03:01:14;;;;;;;0.00;0.00;;;19.20;70.70;;;;;;4207386;28;20486;-53
2021/06/25 03:03:36;;;;;;;0.10;0.10;;;19.20;70.70;;;;;;4208344;28;20056;-53
2021/06/25 03:05:58;;;;;;;0.00;0.00;;;19.20;70.70;;;;;;4208289;28;20048;-51
2021/06/25 03:08:20;;;;;;;0.00;0.00;;;19.20;70.70;;;;;;4208764;28;20051;-53
2021/06/25 03:10:42;;;;;;;0.00;0.00;;;19.20;70.80;;;;;;4208775;28;20054;-53
2021/06/25 03:13:04;;;;;;;0.00;0.00;;;19.20;70.70;;;;;;4208363;28;20490;-48
2021/06/25 03:15:26;;;;;;;0.00;0.00;;;19.20;70.80;;;;;;4208528;28;20123;-50
2021/06/25 03:17:50;;;;;;;0.00;0.00;;;19.20;70.80;;;;;;4208963;28;20138;-51
2021/06/25 03:20:14;;;;;;;0.45;0.45;;;19.20;70.80;;;;;;4208599;28;20139;-51
2021/06/25 03:22:36;;;;;;;0.00;0.00;;;19.20;70.80;;;;;;4208180;28;20101;-51
2021/06/25 03:24:58;;;;;;;0.47;0.47;;;19.20;70.80;;;;;;4208484;28;20055;-51
2021/06/25 03:27:20;;;;;;;0.00;0.00;;;19.10;70.70;;;;;;4208366;28;20052;-53
2021/06/25 03:29:42;;;;;;;0.00;0.00;;;19.10;70.80;;;;;;4191800;28;20040;-51
2021/06/25 03:32:07;;;;;;;0.10;0.10;;;19.20;70.80;;;;;;4206530;28;20048;-50
2021/06/25 03:34:31;;;;;;;0.00;0.00;;;19.10;70.80;;;;;;4207656;28;20159;-49
2021/06/25 03:36:53;;;;;;;0.00;0.00;;;19.10;70.80;;;;;;4208383;28;20210;-52
2021/06/25 03:39:15;;;;;;;0.00;0.00;;;19.10;70.80;;;;;;4208460;28;20071;-51
2021/06/25 03:41:37;;;;;;;0.00;0.00;;;19.10;70.90;;;;;;4207895;28;20048;-53
2021/06/25 03:43:59;;;;;;;0.00;0.00;;;19.10;70.80;;;;;;4206821;28;20048;-51
2021/06/25 03:46:22;;;;;;;2.13;1.17;;;19.10;70.80;;;;;;4208281;28;20486;-51
2021/06/25 03:48:44;;;;;;;0.00;0.00;;;19.10;70.80;;;;;;4207949;28;20415;-49
2021/06/25 03:51:08;;;;;;;0.10;0.10;;;19.10;71.70;;;;;;4207951;28;20072;-47
2021/06/25 03:53:30;;;;;;;0.20;0.20;;;19.10;70.80;;;;;;4207822;28;20083;-52
2021/06/25 03:56:10;;;;;;;0.10;0.10;;;19.10;70.80;;;;;;4207901;28;20418;-53
2021/06/25 03:58:33;;;;;;;0.47;0.43;;;19.10;70.80;;;;;;4207153;28;20059;-52
2021/06/25 04:00:55;;;;;;;0.00;0.00;;;19.10;70.90;;;;;;4208043;28;20485;-52
2021/06/25 04:03:17;;;;;;;0.00;0.00;;;19.10;70.90;;;;;;4207911;28;20048;-51
2021/06/25 04:05:40;;;;;;;0.00;0.00;;;19.00;70.80;;;;;;4207897;28;20414;-52
2021/06/25 04:08:04;;;;;;;0.00;0.00;;;19.00;70.90;;;;;;4207578;28;20067;-53
2021/06/25 04:10:26;;;;;;;0.00;0.00;;;19.00;70.80;;;;;;4207888;28;20048;-50
2021/06/25 04:12:48;;;;;;;0.00;0.00;;;19.00;70.90;;;;;;4207417;28;20058;-52
2021/06/25 04:15:11;;;;;;;0.00;0.00;;;19.10;71.00;;;;;;4208129;28;20409;-52
2021/06/25 04:17:33;;;;;;;0.47;0.47;;;19.00;70.90;;;;;;4207057;28;20048;-47
2021/06/25 04:19:54;;;;;;;0.00;0.00;;;19.10;71.00;;;;;;4207911;28;20470;-49
2021/06/25 04:22:17;;;;;;;0.00;0.00;;;19.00;70.90;;;;;;4207801;28;20182;-53
2021/06/25 04:24:40;;;;;;;0.20;0.20;;;19.00;70.90;;;;;;4207318;28;20048;-50
2021/06/25 04:27:03;;;;;;;0.00;0.00;;;19.00;71.00;;;;;;4202259;28;20075;-48
2021/06/25 04:29:25;;;;;;;0.13;0.13;;;19.00;70.90;;;;;;4200957;28;20071;-52
2021/06/25 04:31:52;;;;;;;0.28;0.28;;;19.00;71.00;;;;;;4207634;28;20044;-53
2021/06/25 04:34:14;;;;;;;0.00;0.00;;;19.00;71.00;;;;;;4207526;28;20497;-49
2021/06/25 04:36:37;;;;;;;0.00;0.00;;;19.00;70.90;;;;;;4207406;28;20059;-52
2021/06/25 04:38:59;;;;;;;0.43;0.43;;;19.00;70.90;;;;;;4207526;28;20502;-48
2021/06/25 04:41:22;;;;;;;0.00;0.00;;;19.10;71.00;;;;;;4207407;28;20538;-48
2021/06/25 04:43:45;;;;;;;0.00;0.00;;;19.00;70.90;;;;;;4207706;28;20382;-47
2021/06/25 04:46:06;;;;;;;0.00;0.00;;;19.00;70.80;;;;;;4207602;28;20438;-49
2021/06/25 04:48:29;;;;;;;0.00;0.00;;;19.10;70.80;;;;;;4207592;28;20479;-50
2021/06/25 04:50:51;;;;;;;0.40;0.40;;;19.10;70.70;;;;;;4207703;28;20077;-51
2021/06/25 04:53:13;;;;;;;0.55;0.55;;;19.10;70.60;;;;;;4190840;28;20056;-50
2021/06/25 04:55:41;;;;;;;0.00;0.00;;;19.20;70.60;;;;;;4193340;28;20056;-48
2021/06/25 04:58:04;;;;;;;0.65;0.65;;;19.20;70.60;;;;;;4219700;28;20055;-48
2021/06/25 05:00:26;;;;;;;0.00;0.00;;;19.20;70.50;;;;;;4209500;28;20059;-52
2021/06/25 05:02:49;;;;;;;0.00;0.00;;;19.30;70.40;;;;;;4210238;28;20044;-54
2021/06/25 05:05:12;;;;;;;0.00;0.00;;;19.30;71.20;;;;;;4211073;28;20075;-50
2021/06/25 05:07:34;;;;;;;0.00;0.00;;;19.30;70.30;;;;;;4210748;28;20056;-50
2021/06/25 05:09:56;;;;;;;0.00;0.00;;;19.30;70.30;;;;;;4210223;28;20486;-56
2021/06/25 05:12:18;;;;;;;0.00;0.00;;;19.30;70.40;;;;;;4210085;28;20048;-52
2021/06/25 05:14:41;;;;;;;0.00;0.00;;;19.30;70.60;;;;;;4210870;28;20067;-53
2021/06/25 05:17:04;;;;;;;0.43;0.43;;;19.40;70.60;;;;;;4210287;28;20547;-52
2021/06/25 05:19:26;;;;;;;0.43;0.43;;;19.40;71.00;;;;;;4210684;28;20055;-49
2021/06/25 05:21:48;;;;;;;0.03;0.03;;;19.60;71.00;;;;;;4210644;28;20063;-50
2021/06/25 05:24:11;;;;;;;0.38;0.38;;;19.70;70.30;;;;;;4210605;28;20040;-51
2021/06/25 05:26:33;;;;;;;0.88;0.45;;;19.80;69.80;;;;;;4210537;28;20138;-51
2021/06/25 05:28:55;;;;;;;0.00;0.00;;;20.00;68.80;;;;;;4209614;28;20075;-50
2021/06/25 05:31:19;;;;;;;0.00;0.00;;;20.10;68.20;;;;;;4210615;28;20044;-50
2021/06/25 05:33:41;;;;;;;0.00;0.00;;;20.30;67.60;;;;;;4209523;28;20044;-53
2021/06/25 05:36:04;;;;;;;0.32;0.32;;;20.30;67.10;;;;;;4208170;28;20083;-51
2021/06/25 05:38:27;;;;;;;0.00;0.00;;;20.40;66.90;;;;;;4206709;28;20044;-48
2021/06/25 05:40:49;;;;;;;0.00;0.00;;;20.40;66.80;;;;;;4210086;28;20486;-53
2021/06/25 05:43:12;;;;;;;0.25;0.25;;;20.40;66.60;;;;;;4209349;28;20063;-52
2021/06/25 05:45:36;;;;;;;0.10;0.10;;;20.50;66.50;;;;;;4208331;28;20044;-49
2021/06/25 05:47:59;;;;;;;0.77;0.77;;;20.40;66.40;;;;;;4202042;28;20076;-53
2021/06/25 05:50:22;;;;;;;0.57;0.57;;;20.40;66.40;;;;;;4203419;28;20048;-54
2021/06/25 05:52:44;;;;;;;0.00;0.00;;;20.40;66.50;;;;;;4197444;28;20524;-51
2021/06/25 05:55:07;;;;;;;0.30;0.30;;;20.40;66.60;;;;;;4192683;28;20144;-54
2021/06/25 05:57:29;;;;;;;0.00;0.00;;;20.30;66.70;;;;;;4196126;28;20135;-53
2021/06/25 05:59:51;;;;;;;0.00;0.00;;;20.30;66.90;;;;;;4209892;28;20430;-53
2021/06/25 06:02:13;;;;;;;0.32;0.32;;;20.20;67.00;;;;;;4209418;28;20055;-54
2021/06/25 06:04:37;;;;;;;0.00;0.00;;;20.20;67.30;;;;;;4209571;28;20508;-51
2021/06/25 06:07:01;;;;;;;0.52;0.52;;;20.10;67.60;;;;;;4207914;28;20444;-50
2021/06/25 06:09:23;;;;;;;0.25;0.25;;;20.10;67.80;;;;;;4204438;28;20048;-49
2021/06/25 06:11:45;;;;;;;0.38;0.38;;;20.10;67.90;;;;;;4202419;28;20403;-50
2021/06/25 06:14:07;;;;;;;0.10;0.10;;;20.10;68.10;;;;;;4209374;28;20047;-53
2021/06/25 06:16:29;;;;;;;0.00;0.00;;;20.10;68.40;;;;;;4208224;28;20054;-52
2021/06/25 06:18:52;;;;;;;0.00;0.00;;;20.10;68.20;;;;;;4209742;28;20478;-50
2021/06/25 06:21:17;;;;;;;0.10;0.10;;;20.10;68.00;;;;;;4209602;28;20052;-49
2021/06/25 06:31:41;;;;;;;0.00;0.00;;;20.30;68.10;;;;;;4209375;28;20048;-52
2021/06/25 06:34:08;;;;;;;0.00;0.00;;;20.30;67.20;;;;;;4208452;28;20104;-51
2021/06/25 06:36:33;;;;;;;0.00;0.00;;;20.30;67.20;;;;;;4198141;28;20063;-51
2021/06/25 06:38:57;;;;;;;0.00;0.00;;;20.30;67.20;;;;;;4209327;28;20101;-49
2021/06/25 06:41:20;;;;;;;0.00;0.00;;;20.30;67.10;;;;;;4207263;28;20060;-50
2021/06/25 06:43:43;;;;;;;0.00;0.00;;;20.40;67.00;;;;;;4208992;28;20044;-52
2021/06/25 06:46:08;;;;;;;0.10;0.10;;;20.50;66.70;;;;;;4208321;28;20134;-51
2021/06/25 06:48:30;;;;;;;0.00;0.00;;;20.60;66.30;;;;;;4208758;28;20051;-48
2021/06/25 06:50:55;;;;;;;0.47;0.32;;;20.70;66.00;;;;;;4208766;28;20052;-49
2021/06/25 06:53:18;;;;;;;0.10;0.10;;;20.80;65.60;;;;;;4208763;28;20637;-49
2021/06/25 06:55:43;;;;;;;0.00;0.00;;;20.90;65.40;;;;;;4203330;28;20054;-50
2021/06/25 06:58:06;;;;;;;0.00;0.00;;;20.90;65.10;;;;;;4186140;28;20575;-51
2021/06/25 07:00:28;;;;;;;0.10;0.10;;;21.00;64.80;;;;;;4180809;28;20065;-50
2021/06/25 07:02:50;;;;;;;0.75;0.73;;;21.10;64.40;;;;;;4188853;28;20774;-50
2021/06/25 07:05:14;;;;;;;1.45;0.75;;;21.10;64.20;;;;;;4207640;28;20047;-54
2021/06/25 07:07:37;;;;;;;0.57;0.15;;;21.20;63.90;;;;;;4205384;28;20131;-54
2021/06/25 07:10:01;;;;;;;0.00;0.00;;;21.20;63.60;;;;;;4208172;28;20044;-50
2021/06/25 07:12:23;;;;;;;0.38;0.32;;;21.30;63.50;;;;;;4208168;28;20102;-53
2021/06/25 07:14:45;;;;;;;0.45;0.45;;;21.30;63.30;;;;;;4207928;28;20126;-49
2021/06/25 07:17:07;;;;;;;3.30;1.25;;;21.30;63.30;;;;;;4191901;28;20049;-60
2021/06/25 07:19:30;;;;;;;2.20;1.27;;;21.30;63.60;;;;;;4195632;28;20469;-60
2021/06/25 07:21:53;;;;;;;0.00;0.00;;;21.30;63.70;;;;;;4207944;28;20040;-59
2021/06/25 07:24:15;;;;;;;0.22;0.22;;;21.30;63.40;;;;;;4208100;28;20101;-59
2021/06/25 07:26:38;;;;;;;0.55;0.55;;;21.30;63.40;;;;;;4207919;28;20062;-60
2021/06/25 07:29:01;;;;;;;0.00;0.00;;;21.40;63.50;;;;;;4204321;28;20044;-60
2021/06/25 07:31:23;;;;;;;15.85;2.53;;;21.30;63.50;;;;;;4208404;28;20048;-60
2021/06/25 07:33:45;;;;;;;0.38;0.38;;;21.30;63.60;;;;;;4207945;28;20044;-60
2021/06/25 07:36:08;;;;;;;0.40;0.40;;;21.30;63.70;;;;;;4207796;28;20040;-60
2021/06/25 07:38:30;;;;;;;0.43;0.43;;;21.30;63.70;;;;;;4208464;28;20063;-60
2021/06/25 07:40:52;;;;;;;0.30;0.30;;;21.30;64.00;;;;;;4207648;28;20055;-59
2021/06/25 07:43:16;;;;;;;0.00;0.00;;;21.30;63.40;;;;;;4207352;28;20129;-59
2021/06/25 07:45:38;;;;;;;0.52;0.52;;;21.30;63.30;;;;;;4207779;28;20044;-59
2021/06/25 07:48:00;;;;;;;0.65;0.65;;;21.40;63.50;;;;;;4208210;28;20059;-60
2021/06/25 07:50:23;;;;;;;0.20;0.20;;;21.30;63.40;;;;;;4207929;28;20064;-59
2021/06/25 07:52:45;;;;;;;0.10;0.10;;;21.30;63.30;;;;;;4205435;28;20048;-59
2021/06/25 07:55:09;;;;;;;0.20;0.20;;;21.30;63.20;;;;;;4207547;28;20052;-60
2021/06/25 07:57:31;;;;;;;0.13;0.13;;;21.30;63.10;;;;;;4207043;28;20094;-60
2021/06/25 07:59:54;;;;;;;0.00;0.00;;;21.30;63.20;;;;;;4207261;28;20492;-59
2021/06/25 08:02:16;;;;;;;0.00;0.00;;;21.30;63.30;;;;;;4208007;28;20413;-60
2021/06/25 08:04:44;;;;;;;0.28;0.28;;;21.30;63.60;;;;;;4207020;28;20059;-60
2021/06/25 08:07:06;;;;;;;0.52;0.52;;;21.20;63.60;;;;;;4207088;28;20070;-60
2021/06/25 08:09:29;;;;;;;0.15;0.15;;;21.30;63.70;;;;;;4207888;28;20052;-59
2021/06/25 08:11:52;;;;;;;0.20;0.20;;;21.20;63.40;;;;;;4207503;28;20052;-59
2021/06/25 08:14:14;;;;;;;0.20;0.20;;;21.20;63.40;;;;;;4207600;28;20086;-60
2021/06/25 08:16:37;;;;;;;0.63;0.63;;;21.20;63.40;;;;;;4207517;28;20055;-59
2021/06/25 08:19:00;;;;;;;0.88;0.88;;;21.20;63.60;;;;;;4207337;28;20052;-60
2021/06/25 08:21:22;;;;;;;0.75;0.52;;;21.20;63.80;;;;;;4207596;28;20071;-60
2021/06/25 08:23:45;;;;;;;0.28;0.28;;;21.20;63.80;;;;;;4206833;28;20079;-59
2021/06/25 08:26:07;;;;;;;0.82;0.45;;;21.20;63.70;;;;;;4207626;28;20048;-60
2021/06/25 08:28:29;;;;;;;0.45;0.45;;;21.20;63.70;;;;;;4206368;28;20044;-59
2021/06/25 08:30:51;;;;;;;0.10;0.10;;;21.20;63.70;;;;;;4207258;28;20067;-60
2021/06/25 08:33:15;;;;;;;0.75;0.75;;;21.30;63.70;;;;;;4203558;28;20048;-61
2021/06/25 08:35:37;;;;;;;0.10;0.10;;;21.30;63.70;;;;;;4208438;28;20134;-59
2021/06/25 08:37:59;;;;;;;0.00;0.00;;;21.30;63.80;;;;;;4207551;28;20055;-60
2021/06/25 08:40:22;;;;;;;0.08;0.08;;;21.30;63.90;;;;;;4209401;28;20452;-61
2021/06/25 08:42:45;;;;;;;0.82;0.82;;;21.40;64.10;;;;;;4209719;28;20074;-59
2021/06/25 08:45:09;;;;;;;0.60;0.60;;;21.40;64.10;;;;;;4210951;28;20498;-60
2021/06/25 08:47:37;;;;;;;0.03;0.03;;;21.30;64.00;;;;;;4210944;28;20092;-60
2021/06/25 08:50:01;;;;;;;0.00;0.00;;;21.30;63.90;;;;;;4210861;28;20048;-61
2021/06/25 08:52:24;;;;;;;0.03;0.03;;;21.40;64.00;;;;;;4210903;28;20479;-60
2021/06/25 08:54:47;;;;;;;0.10;0.10;;;21.30;64.20;;;;;;4210859;28;20644;-60
2021/06/25 08:57:10;;;;;;;0.00;0.00;;;21.30;64.10;;;;;;4211164;28;20763;-59
2021/06/25 08:59:32;;;;;;;0.52;0.52;;;21.40;64.40;;;;;;4211133;28;20044;-61
2021/06/25 09:01:54;;;;;;;0.00;0.00;;;21.30;64.30;;;;;;4210881;28;20089;-60
2021/06/25 09:04:37;;;;;;;0.25;0.25;;;21.30;64.30;;;;;;4209541;28;20125;-59
2021/06/25 09:07:02;;;;;;;0.20;0.20;;;21.30;64.50;;;;;;4210512;28;20044;-59
2021/06/25 09:09:37;;;;;;;0.00;0.00;;;21.30;64.70;;;;;;4210034;28;20052;-59
2021/06/25 09:12:14;;;;;;;0.30;0.30;;;21.30;64.50;;;;;;4210393;28;20047;-59
2021/06/25 09:14:58;;;;;;;0.00;0.00;;;21.30;64.30;;;;;;4210316;28;20537;-59
2021/06/25 09:17:20;;;;;;;0.00;0.00;;;21.30;64.60;;;;;;4210317;28;20044;-61
2021/06/25 09:19:42;;;;;;;0.10;0.10;;;21.30;65.40;;;;;;4210505;28;20051;-61
2021/06/25 09:22:06;;;;;;;0.25;0.25;;;21.30;64.40;;;;;;4210355;28;20048;-60
2021/06/25 09:24:29;;;;;;;6.72;2.20;;;21.30;64.30;;;;;;4208857;28;20040;-60
2021/06/25 09:26:58;;;;;;;0.10;0.10;;;21.30;64.30;;;;;;4210027;28;20054;-60
2021/06/25 09:29:23;;;;;;;0.00;0.00;;;21.30;64.30;;;;;;4209885;28;20456;-60
2021/06/25 09:31:55;;;;;;;0.90;0.90;;;21.30;64.30;;;;;;4210783;28;20131;-59
2021/06/25 09:34:17;;;;;;;0.47;0.47;;;21.30;64.40;;;;;;4210083;28;20066;-59
2021/06/25 09:36:40;;;;;;;1.40;1.30;;;21.30;64.30;;;;;;4210058;28;20524;-60
2021/06/25 09:39:06;;;;;;;0.00;0.00;;;21.30;64.10;;;;;;4210526;28;20519;-60
2021/06/25 09:41:30;;;;;;;0.20;0.20;;;21.30;64.20;;;;;;4209936;28;20071;-60
2021/06/25 09:43:57;;;;;;;1.55;1.45;;;21.30;65.00;;;;;;4209954;28;20055;-59
2021/06/25 09:46:25;;;;;;;0.10;0.10;;;21.40;64.10;;;;;;4208719;28;20105;-60
2021/06/25 09:48:53;;;;;;;0.03;0.03;;;21.40;64.00;;;;;;4209734;28;20055;-60
2021/06/25 09:51:15;;;;;;;0.47;0.47;;;21.40;63.80;;;;;;4209963;28;20051;-60
2021/06/25 09:53:37;;;;;;;0.40;0.40;;;21.40;63.80;;;;;;4209882;28;20048;-60
2021/06/25 09:56:02;;;;;;;0.00;0.00;;;21.50;64.00;;;;;;4209937;28;20055;-60
2021/06/25 09:58:34;;;;;;;0.75;0.75;;;21.50;64.20;;;;;;4208935;28;20125;-59
2021/06/25 10:03:39;;;;;;;0.75;0.75;;;21.50;63.70;;;;;;4209442;28;20456;-60
2021/06/25 10:06:12;;;;;;;0.10;0.10;;;21.50;63.50;;;;;;4209107;28;20052;-60
2021/06/25 10:08:34;;;;;;;0.40;0.40;;;21.50;63.40;;;;;;4209458;28;20093;-60
2021/06/25 10:10:56;;;;;;;0.38;0.38;;;21.60;63.50;;;;;;4209630;28;20494;-60
2021/06/25 10:13:19;;;;;;;0.40;0.40;;;21.60;64.50;;;;;;4209654;28;20090;-59
2021/06/25 10:15:42;;;;;;;0.00;0.00;;;21.60;65.30;;;;;;4209113;28;20052;-60
2021/06/25 10:18:04;;;;;;;0.10;0.10;;;21.60;64.80;;;;;;4208743;28;20071;-59
2021/06/25 10:20:29;;;;;;;0.10;0.10;;;21.60;64.30;;;;;;4196996;28;20040;-59
2021/06/25 10:22:51;;;;;;;0.15;0.15;;;21.60;64.20;;;;;;4209017;28;20048;-60
2021/06/25 10:25:15;;;;;;;0.00;0.00;;;21.60;64.10;;;;;;4207992;28;20110;-60
2021/06/25 10:27:38;;;;;;;0.90;0.90;;;21.60;63.90;;;;;;4204527;28;20093;-59
2021/06/25 10:30:03;;;;;;;0.17;0.17;;;21.60;63.70;;;;;;4208769;28;20409;-60
2021/06/25 10:32:25;;;;;;;0.88;0.88;;;21.60;63.60;;;;;;4209636;28;20127;-60
2021/06/25 10:34:50;;;;;;;0.00;0.00;;;21.60;63.50;;;;;;4208968;28;20071;-60
2021/06/25 10:37:17;;;;;;;0.43;0.43;;;21.60;63.40;;;;;;4209291;28;20466;-60
2021/06/25 10:39:40;;;;;;;0.10;0.10;;;21.60;63.10;;;;;;4208693;28;20044;-59
2021/06/25 10:42:04;;;;;;;1.05;1.05;;;21.60;63.00;;;;;;4209404;28;20044;-58
2021/06/25 10:44:40;;;;;;;0.32;0.10;;;21.60;63.10;;;;;;4209169;28;20822;-59
2021/06/25 10:47:16;;;;;;;0.30;0.30;;;21.60;63.00;;;;;;4189290;28;20080;-57
2021/06/25 10:50:29;;;;;;;0.98;0.47;;;21.60;62.90;;;;;;4192180;28;20056;-59
2021/06/25 10:53:20;;;;;;;0.25;0.25;;;21.60;62.80;;;;;;4191821;28;20044;-59
2021/06/25 10:55:46;;;;;;;1.42;1.10;;;21.60;62.70;;;;;;4192294;28;20074;-59
2021/06/25 10:58:09;;;;;;;3.60;1.70;;;21.70;62.80;;;;;;4175550;28;20098;-59
2021/06/25 11:00:52;;;;;;;0.00;0.00;;;21.60;62.60;;;;;;4184907;28;20066;-59
2021/06/25 11:03:41;;;;;;;0.10;0.10;;;21.70;62.60;;;;;;4207298;28;20063;-56
2021/06/25 11:06:05;;;;;;;0.10;0.10;;;21.70;62.60;;;;;;4208547;28;20406;-55
2021/06/25 11:08:27;;;;;;;0.25;0.25;;;21.70;62.50;;;;;;4207613;28;20563;-57
2021/06/25 11:10:51;;;;;;;0.10;0.10;;;21.70;62.30;;;;;;4208826;28;20145;-57
2021/06/25 11:13:22;;;;;;;0.50;0.50;;;21.80;62.40;;;;;;4208806;28;20476;-57
2021/06/25 11:15:49;;;;;;;0.30;0.30;;;21.80;62.20;;;;;;4207525;28;20087;-56
2021/06/25 11:18:18;;;;;;;0.77;0.30;;;21.80;62.10;;;;;;4208984;28;20048;-57
2021/06/25 11:20:50;;;;;;;0.08;0.08;;;21.90;62.00;;;;;;4208387;28;20460;-58
2021/06/25 11:23:17;;;;;;;0.08;0.08;;;21.90;61.90;;;;;;4208265;28;20048;-56
2021/06/25 11:25:45;;;;;;;0.98;0.98;;;21.90;61.70;;;;;;4208323;28;20056;-56
2021/06/25 11:28:21;;;;;;;0.32;0.32;;;21.90;61.70;;;;;;4208208;28;20051;-55
2021/06/25 11:31:05;;;;;;;0.88;0.80;;;21.90;61.50;;;;;;4207699;28;20043;-54
2021/06/25 11:33:29;;;;;;;0.85;0.85;;;22.00;61.50;;;;;;4208161;28;20051;-58
2021/06/25 11:35:53;;;;;;;0.00;0.00;;;21.90;61.30;;;;;;4207949;28;20125;-55
2021/06/25 11:38:15;;;;;;;0.00;0.00;;;22.00;62.10;;;;;;4208314;28;20054;-55
2021/06/25 11:40:47;;;;;;;0.40;0.40;;;22.00;61.20;;;;;;4208445;28;20059;-52
2021/06/25 11:43:10;;;;;;;0.43;0.43;;;22.00;61.10;;;;;;4207980;28;20670;-55
2021/06/25 11:45:34;;;;;;;0.30;0.30;;;22.00;60.90;;;;;;4207680;28;20051;-52
2021/06/25 11:47:57;;;;;;;0.00;0.00;;;22.00;60.80;;;;;;4192348;28;20498;-51
2021/06/25 11:50:21;;;;;;;0.20;0.20;;;22.00;60.70;;;;;;4208264;28;20097;-51
2021/06/25 11:52:45;;;;;;;0.93;0.93;;;22.00;60.60;;;;;;4204259;28;20052;-51
2021/06/25 11:55:11;;;;;;;0.00;0.00;;;22.10;60.60;;;;;;4201700;28;20044;-50
2021/06/25 11:57:35;;;;;;;1.75;1.30;;;22.10;60.50;;;;;;4198914;28;20056;-55
2021/06/25 12:00:06;;;;;;;0.35;0.35;;;22.10;60.40;;;;;;4207553;28;20044;-54
2021/06/25 12:02:42;;;;;;;0.82;0.82;;;22.10;60.30;;;;;;4193061;28;20063;-53
2021/06/25 12:05:05;;;;;;;0.35;0.35;;;22.10;60.40;;;;;;4190834;28;20052;-51
2021/06/25 12:07:27;;;;;;;0.68;0.68;;;22.10;60.10;;;;;;4190480;28;20463;-53
2021/06/25 12:09:52;;;;;;;0.75;0.75;;;22.10;60.00;;;;;;4194310;28;20620;-56
2021/06/25 12:12:29;;;;;;;0.00;0.00;;;22.20;60.00;;;;;;4207906;28;20048;-51
2021/06/25 12:14:53;;;;;;;0.28;0.28;;;22.20;60.00;;;;;;4206825;28;20066;-56
2021/06/25 12:17:16;;;;;;;1.33;0.63;;;22.20;59.90;;;;;;4191048;28;20402;-54
2021/06/25 12:19:38;;;;;;;1.08;0.68;;;22.20;59.80;;;;;;4175504;28;20067;-55
2021/06/25 12:22:05;;;;;;;0.22;0.22;;;22.20;59.80;;;;;;4191163;28;20056;-51
2021/06/25 12:24:27;;;;;;;0.90;0.70;;;22.30;59.80;;;;;;4191274;28;20064;-56
2021/06/25 12:26:51;;;;;;;0.10;0.10;;;22.30;59.70;;;;;;4178524;28;20514;-52
2021/06/25 12:29:13;;;;;;;0.10;0.10;;;22.30;59.60;;;;;;4203515;28;20060;-54
2021/06/25 12:31:36;;;;;;;0.00;0.00;;;22.30;59.60;;;;;;4207844;28;20405;-51
2021/06/25 12:34:06;;;;;;;0.63;0.63;;;22.30;59.50;;;;;;4208097;28;20060;-53
2021/06/25 12:36:28;;;;;;;0.15;0.15;;;22.40;59.50;;;;;;4206567;28;20063;-51
2021/06/25 12:38:55;;;;;;;0.00;0.00;;;22.40;59.50;;;;;;4207824;28;20048;-49
2021/06/25 12:41:17;;;;;;;0.50;0.50;;;22.40;59.50;;;;;;4189837;28;20044;-53